AIC1XW VOHS-VABB
Flight info
| Callsign | AIC1XW |
|---|---|
| Flight time | 1h 1m |
| Altitude | 38000 |
| Route | TAMIV5 APUSU W18 OPAKA EMRAK2A |
| Aircraft | A20N/M-SDE2E3FGHIRWXY/LB1 |
Departure
| Time | 2026-04-25 10:12 |
|---|---|
| Airport | Rajiv Gandhi International Airport (VOHS) |
Arrival
| Time | 2026-04-25 11:13 |
|---|---|
| Airport | Chhatrapati Shivaji Maharaj International Airport (VABB) |
| Time | Latitude | Longitude | Altitude | Speed | Heading |
|---|---|---|---|---|---|
| 2026-04-25 09:47 | 17.23418 | 78.43121 | 2012 ft | 0 kts | 360° |
| 2026-04-25 10:00 | 17.23406 | 78.43121 | 2013 ft | 2 kts | 360° |
| 2026-04-25 10:01 | 17.23391 | 78.43121 | 2013 ft | 2 kts | 0° |
| 2026-04-25 10:01 | 17.23376 | 78.43120 | 2014 ft | 2 kts | 360° |
| 2026-04-25 10:01 | 17.23361 | 78.43120 | 2014 ft | 2 kts | 0° |
| 2026-04-25 10:01 | 17.23346 | 78.43120 | 2014 ft | 2 kts | 21° |
| 2026-04-25 10:02 | 17.23333 | 78.43110 | 2014 ft | 2 kts | 57° |
| 2026-04-25 10:02 | 17.23329 | 78.43098 | 2014 ft | 0 kts | 85° |
| 2026-04-25 10:02 | 17.23329 | 78.43091 | 2014 ft | 1 kts | 91° |
| 2026-04-25 10:02 | 17.23329 | 78.43089 | 2013 ft | 0 kts | 90° |
| 2026-04-25 10:04 | 17.23329 | 78.43096 | 2014 ft | 3 kts | 90° |
| 2026-04-25 10:05 | 17.23318 | 78.43148 | 2016 ft | 8 kts | 142° |
| 2026-04-25 10:05 | 17.23258 | 78.43160 | 2016 ft | 9 kts | 180° |
| 2026-04-25 10:05 | 17.23189 | 78.43160 | 2016 ft | 8 kts | 178° |
| 2026-04-25 10:05 | 17.23185 | 78.43161 | 2016 ft | 0 kts | 178° |
| 2026-04-25 10:06 | 17.23169 | 78.43161 | 2016 ft | 6 kts | 178° |
| 2026-04-25 10:06 | 17.23110 | 78.43174 | 2016 ft | 10 kts | 146° |
| 2026-04-25 10:06 | 17.23087 | 78.43258 | 2018 ft | 16 kts | 89° |
| 2026-04-25 10:07 | 17.23088 | 78.43390 | 2022 ft | 18 kts | 89° |
| 2026-04-25 10:07 | 17.23091 | 78.43533 | 2026 ft | 20 kts | 90° |
| 2026-04-25 10:07 | 17.23092 | 78.43685 | 2032 ft | 21 kts | 89° |
| 2026-04-25 10:07 | 17.23094 | 78.43844 | 2037 ft | 22 kts | 89° |
| 2026-04-25 10:08 | 17.23097 | 78.44037 | 2043 ft | 30 kts | 89° |
| 2026-04-25 10:08 | 17.23101 | 78.44287 | 2049 ft | 36 kts | 89° |
| 2026-04-25 10:08 | 17.23106 | 78.44547 | 2050 ft | 32 kts | 90° |
| 2026-04-25 10:08 | 17.23106 | 78.44709 | 2047 ft | 8 kts | 89° |
| 2026-04-25 10:09 | 17.23108 | 78.44793 | 2044 ft | 14 kts | 89° |
| 2026-04-25 10:09 | 17.23108 | 78.44901 | 2041 ft | 11 kts | 103° |
| 2026-04-25 10:09 | 17.23052 | 78.44927 | 2040 ft | 9 kts | 181° |
| 2026-04-25 10:09 | 17.23016 | 78.44927 | 2041 ft | 3 kts | 180° |
| 2026-04-25 10:10 | 17.22987 | 78.44927 | 2041 ft | 4 kts | 180° |
| 2026-04-25 10:10 | 17.22944 | 78.44926 | 2041 ft | 7 kts | 181° |
| 2026-04-25 10:10 | 17.22910 | 78.44907 | 2041 ft | 3 kts | 253° |
| 2026-04-25 10:10 | 17.22906 | 78.44888 | 2042 ft | 3 kts | 262° |
| 2026-04-25 10:11 | 17.22906 | 78.44876 | 2042 ft | 0 kts | 268° |
| 2026-04-25 10:11 | 17.22904 | 78.44813 | 2043 ft | 35 kts | 269° |
| 2026-04-25 10:11 | 17.22898 | 78.44276 | 2044 ft | 108 kts | 269° |
| 2026-04-25 10:12 | 17.22885 | 78.43277 | 2133 ft | 156 kts | 270° |
| 2026-04-25 10:12 | 17.22875 | 78.42120 | 2700 ft | 162 kts | 270° |
| 2026-04-25 10:12 | 17.22851 | 78.39749 | 4055 ft | 170 kts | 270° |
| 2026-04-25 10:13 | 17.22837 | 78.38457 | 4417 ft | 184 kts | 270° |
| 2026-04-25 10:13 | 17.22821 | 78.37062 | 4747 ft | 201 kts | 270° |
| 2026-04-25 10:13 | 17.22802 | 78.35510 | 5011 ft | 224 kts | 270° |
| 2026-04-25 10:13 | 17.22792 | 78.33826 | 5421 ft | 241 kts | 273° |
| 2026-04-25 10:14 | 17.22987 | 78.32014 | 5841 ft | 259 kts | 282° |
| 2026-04-25 10:14 | 17.23451 | 78.30157 | 6357 ft | 272 kts | 287° |
| 2026-04-25 10:14 | 17.24009 | 78.28245 | 7038 ft | 280 kts | 288° |
| 2026-04-25 10:14 | 17.24583 | 78.26311 | 7823 ft | 284 kts | 288° |
| 2026-04-25 10:15 | 17.25169 | 78.24333 | 8612 ft | 288 kts | 288° |
| 2026-04-25 10:15 | 17.25765 | 78.22308 | 9404 ft | 292 kts | 288° |
| 2026-04-25 10:15 | 17.26356 | 78.20294 | 10170 ft | 297 kts | 288° |
| 2026-04-25 10:15 | 17.26979 | 78.18166 | 10680 ft | 312 kts | 288° |
| 2026-04-25 10:16 | 17.27622 | 78.15965 | 11280 ft | 323 kts | 288° |
| 2026-04-25 10:16 | 17.28277 | 78.13717 | 12061 ft | 327 kts | 288° |
| 2026-04-25 10:16 | 17.28935 | 78.11455 | 12841 ft | 330 kts | 288° |
| 2026-04-25 10:16 | 17.29609 | 78.09136 | 13616 ft | 334 kts | 288° |
| 2026-04-25 10:17 | 17.30282 | 78.06816 | 14374 ft | 338 kts | 288° |
| 2026-04-25 10:17 | 17.30971 | 78.04442 | 15130 ft | 341 kts | 288° |
| 2026-04-25 10:17 | 17.31661 | 78.02065 | 15869 ft | 345 kts | 288° |
| 2026-04-25 10:17 | 17.32391 | 77.99681 | 16555 ft | 348 kts | 292° |
| 2026-04-25 10:18 | 17.33370 | 77.97333 | 17122 ft | 353 kts | 296° |
| 2026-04-25 10:18 | 17.34432 | 77.95009 | 17727 ft | 357 kts | 296° |
| 2026-04-25 10:18 | 17.35500 | 77.92669 | 18348 ft | 360 kts | 296° |
| 2026-04-25 10:18 | 17.36573 | 77.90291 | 18964 ft | 363 kts | 296° |
| 2026-04-25 10:19 | 17.37643 | 77.87884 | 19572 ft | 366 kts | 295° |
| 2026-04-25 10:19 | 17.38705 | 77.85478 | 20167 ft | 369 kts | 295° |
| 2026-04-25 10:19 | 17.39780 | 77.83029 | 20761 ft | 372 kts | 295° |
| 2026-04-25 10:19 | 17.40864 | 77.80553 | 21350 ft | 375 kts | 295° |
| 2026-04-25 10:20 | 17.41945 | 77.78074 | 21929 ft | 379 kts | 295° |
| 2026-04-25 10:20 | 17.43055 | 77.75529 | 22512 ft | 382 kts | 295° |
| 2026-04-25 10:20 | 17.44153 | 77.73007 | 23078 ft | 385 kts | 295° |
| 2026-04-25 10:20 | 17.45255 | 77.70474 | 23634 ft | 388 kts | 295° |
| 2026-04-25 10:21 | 17.46380 | 77.67886 | 24191 ft | 391 kts | 295° |
| 2026-04-25 10:21 | 17.47508 | 77.65290 | 24733 ft | 394 kts | 295° |
| 2026-04-25 10:21 | 17.48644 | 77.62676 | 25265 ft | 397 kts | 295° |
| 2026-04-25 10:21 | 17.49793 | 77.60029 | 25793 ft | 400 kts | 295° |
| 2026-04-25 10:22 | 17.50934 | 77.57400 | 26305 ft | 403 kts | 295° |
| 2026-04-25 10:22 | 17.51707 | 77.55618 | 26645 ft | 405 kts | 295° |
| 2026-04-25 10:22 | 17.53274 | 77.52004 | 27315 ft | 409 kts | 295° |
| 2026-04-25 10:22 | 17.54451 | 77.49289 | 27797 ft | 412 kts | 295° |
| 2026-04-25 10:23 | 17.55634 | 77.46558 | 28265 ft | 414 kts | 295° |
| 2026-04-25 10:23 | 17.56824 | 77.43811 | 28720 ft | 417 kts | 295° |
| 2026-04-25 10:23 | 17.58024 | 77.41038 | 29166 ft | 420 kts | 295° |
| 2026-04-25 10:23 | 17.59231 | 77.38247 | 29599 ft | 422 kts | 295° |
| 2026-04-25 10:24 | 17.60442 | 77.35448 | 30015 ft | 425 kts | 295° |
| 2026-04-25 10:24 | 17.61668 | 77.32605 | 30423 ft | 427 kts | 295° |
| 2026-04-25 10:24 | 17.62877 | 77.29792 | 30814 ft | 430 kts | 295° |
| 2026-04-25 10:24 | 17.64105 | 77.26935 | 31197 ft | 432 kts | 295° |
| 2026-04-25 10:25 | 17.65342 | 77.24062 | 31568 ft | 434 kts | 295° |
| 2026-04-25 10:25 | 17.66588 | 77.21168 | 31929 ft | 436 kts | 295° |
| 2026-04-25 10:25 | 17.67824 | 77.18298 | 32367 ft | 436 kts | 295° |
| 2026-04-25 10:25 | 17.69076 | 77.15391 | 32857 ft | 434 kts | 295° |
| 2026-04-25 10:26 | 17.70305 | 77.12537 | 33316 ft | 432 kts | 295° |
| 2026-04-25 10:26 | 17.71546 | 77.09652 | 33747 ft | 431 kts | 295° |
| 2026-04-25 10:26 | 17.72767 | 77.06816 | 34149 ft | 430 kts | 295° |
| 2026-04-25 10:26 | 17.73980 | 77.03996 | 34536 ft | 429 kts | 295° |
| 2026-04-25 10:27 | 17.75201 | 77.01154 | 34906 ft | 428 kts | 295° |
| 2026-04-25 10:27 | 17.76433 | 76.98287 | 35241 ft | 428 kts | 295° |
| 2026-04-25 10:27 | 17.77656 | 76.95439 | 35540 ft | 428 kts | 295° |
| 2026-04-25 10:27 | 17.78877 | 76.92596 | 35818 ft | 429 kts | 295° |
| 2026-04-25 10:28 | 17.80092 | 76.89768 | 36084 ft | 430 kts | 295° |
| 2026-04-25 10:28 | 17.81312 | 76.86927 | 36320 ft | 431 kts | 294° |
| 2026-04-25 10:28 | 17.82555 | 76.84031 | 36527 ft | 433 kts | 294° |
| 2026-04-25 10:28 | 17.83791 | 76.81149 | 36722 ft | 435 kts | 294° |
| 2026-04-25 10:29 | 17.85032 | 76.78252 | 36923 ft | 436 kts | 294° |
| 2026-04-25 10:29 | 17.86270 | 76.75353 | 37129 ft | 438 kts | 294° |
| 2026-04-25 10:29 | 17.87525 | 76.72416 | 37331 ft | 439 kts | 294° |
| 2026-04-25 10:29 | 17.88771 | 76.69498 | 37524 ft | 440 kts | 294° |
| 2026-04-25 10:30 | 17.90015 | 76.66585 | 37705 ft | 441 kts | 294° |
| 2026-04-25 10:30 | 17.90853 | 76.64622 | 37822 ft | 442 kts | 294° |
| 2026-04-25 10:30 | 17.92534 | 76.60685 | 37912 ft | 444 kts | 294° |
| 2026-04-25 10:31 | 17.95046 | 76.54794 | 37924 ft | 444 kts | 294° |
| 2026-04-25 10:31 | 17.97716 | 76.48988 | 37924 ft | 445 kts | 301° |
| 2026-04-25 10:32 | 18.01444 | 76.43792 | 37920 ft | 445 kts | 309° |
| 2026-04-25 10:32 | 18.04726 | 76.38322 | 37908 ft | 445 kts | 299° |
| 2026-04-25 10:33 | 18.07744 | 76.32664 | 37896 ft | 445 kts | 299° |
| 2026-04-25 10:33 | 18.10808 | 76.27030 | 37885 ft | 445 kts | 300° |
| 2026-04-25 10:34 | 18.13944 | 76.21402 | 37879 ft | 445 kts | 300° |
| 2026-04-25 10:34 | 18.17066 | 76.15810 | 37876 ft | 445 kts | 300° |
| 2026-04-25 10:35 | 18.20177 | 76.10227 | 37875 ft | 445 kts | 300° |
| 2026-04-25 10:35 | 18.23304 | 76.04606 | 37875 ft | 445 kts | 300° |
| 2026-04-25 10:36 | 18.26422 | 75.98995 | 37875 ft | 445 kts | 300° |
| 2026-04-25 10:36 | 18.29538 | 75.93381 | 37875 ft | 445 kts | 300° |
| 2026-04-25 10:37 | 18.32665 | 75.87743 | 37874 ft | 446 kts | 300° |
| 2026-04-25 10:37 | 18.35756 | 75.82166 | 37874 ft | 445 kts | 300° |
| 2026-04-25 10:38 | 18.38873 | 75.76536 | 37876 ft | 450 kts | 300° |
| 2026-04-25 10:38 | 18.42048 | 75.70796 | 37878 ft | 459 kts | 300° |
| 2026-04-25 10:39 | 18.45283 | 75.64942 | 37876 ft | 466 kts | 300° |
| 2026-04-25 10:39 | 18.48542 | 75.59041 | 37876 ft | 468 kts | 300° |
| 2026-04-25 10:40 | 18.51797 | 75.53141 | 37875 ft | 468 kts | 300° |
| 2026-04-25 10:40 | 18.55055 | 75.47230 | 37875 ft | 468 kts | 300° |
| 2026-04-25 10:41 | 18.58309 | 75.41318 | 37875 ft | 468 kts | 300° |
| 2026-04-25 10:41 | 18.61549 | 75.35429 | 37868 ft | 460 kts | 300° |
| 2026-04-25 10:41 | 18.63125 | 75.32555 | 37868 ft | 448 kts | 299° |
| 2026-04-25 10:42 | 18.64692 | 75.29688 | 37871 ft | 445 kts | 299° |
| 2026-04-25 10:42 | 18.67760 | 75.24078 | 37874 ft | 445 kts | 299° |
| 2026-04-25 10:43 | 18.70853 | 75.18430 | 37875 ft | 445 kts | 299° |
| 2026-04-25 10:43 | 18.72405 | 75.15597 | 37717 ft | 446 kts | 299° |
| 2026-04-25 10:43 | 18.73938 | 75.12799 | 37469 ft | 443 kts | 299° |
| 2026-04-25 10:43 | 18.75483 | 75.09975 | 37173 ft | 440 kts | 299° |
| 2026-04-25 10:44 | 18.77003 | 75.07199 | 36772 ft | 438 kts | 299° |
| 2026-04-25 10:44 | 18.78503 | 75.04458 | 36216 ft | 439 kts | 299° |
| 2026-04-25 10:44 | 18.80047 | 75.01634 | 35585 ft | 440 kts | 300° |
| 2026-04-25 10:44 | 18.81566 | 74.98854 | 34943 ft | 442 kts | 300° |
| 2026-04-25 10:45 | 18.83094 | 74.96058 | 34287 ft | 444 kts | 300° |
| 2026-04-25 10:45 | 18.84648 | 74.93211 | 33614 ft | 446 kts | 300° |
| 2026-04-25 10:45 | 18.86177 | 74.90410 | 32945 ft | 448 kts | 300° |
| 2026-04-25 10:45 | 18.87734 | 74.87555 | 32259 ft | 450 kts | 300° |
| 2026-04-25 10:46 | 18.89296 | 74.84692 | 31581 ft | 451 kts | 300° |
| 2026-04-25 10:46 | 18.90858 | 74.81831 | 31129 ft | 446 kts | 300° |
| 2026-04-25 10:46 | 18.92388 | 74.79028 | 30711 ft | 441 kts | 299° |
| 2026-04-25 10:46 | 18.93900 | 74.76252 | 30295 ft | 436 kts | 299° |
| 2026-04-25 10:47 | 18.95400 | 74.73498 | 29877 ft | 431 kts | 299° |
| 2026-04-25 10:47 | 18.96880 | 74.70777 | 29462 ft | 427 kts | 299° |
| 2026-04-25 10:47 | 18.98359 | 74.68057 | 29043 ft | 422 kts | 299° |
| 2026-04-25 10:47 | 18.99811 | 74.65385 | 28627 ft | 418 kts | 299° |
| 2026-04-25 10:48 | 19.01241 | 74.62752 | 28213 ft | 414 kts | 299° |
| 2026-04-25 10:48 | 19.02676 | 74.60110 | 27794 ft | 411 kts | 299° |
| 2026-04-25 10:48 | 19.04089 | 74.57505 | 27375 ft | 407 kts | 299° |
| 2026-04-25 10:48 | 19.05475 | 74.54951 | 26958 ft | 404 kts | 299° |
| 2026-04-25 10:49 | 19.06877 | 74.52367 | 26521 ft | 401 kts | 299° |
| 2026-04-25 10:49 | 19.07793 | 74.50676 | 26233 ft | 399 kts | 299° |
| 2026-04-25 10:49 | 19.09614 | 74.47317 | 25657 ft | 395 kts | 299° |
| 2026-04-25 10:49 | 19.10984 | 74.44798 | 25220 ft | 393 kts | 300° |
| 2026-04-25 10:50 | 19.12345 | 74.42311 | 24788 ft | 390 kts | 300° |
| 2026-04-25 10:50 | 19.13695 | 74.39838 | 24356 ft | 388 kts | 300° |
| 2026-04-25 10:50 | 19.15024 | 74.37398 | 23931 ft | 385 kts | 300° |
| 2026-04-25 10:50 | 19.16348 | 74.34958 | 23504 ft | 383 kts | 299° |
| 2026-04-25 10:51 | 19.17668 | 74.32510 | 23075 ft | 381 kts | 299° |
| 2026-04-25 10:51 | 19.18965 | 74.30100 | 22653 ft | 379 kts | 299° |
| 2026-04-25 10:51 | 19.20260 | 74.27694 | 22230 ft | 376 kts | 299° |
| 2026-04-25 10:51 | 19.21558 | 74.25284 | 21807 ft | 374 kts | 299° |
| 2026-04-25 10:52 | 19.22834 | 74.22916 | 21389 ft | 372 kts | 299° |
| 2026-04-25 10:52 | 19.24117 | 74.20538 | 20968 ft | 370 kts | 299° |
| 2026-04-25 10:52 | 19.25387 | 74.18182 | 20548 ft | 367 kts | 300° |
| 2026-04-25 10:52 | 19.26642 | 74.15854 | 20133 ft | 365 kts | 300° |
| 2026-04-25 10:53 | 19.27888 | 74.13541 | 19720 ft | 363 kts | 300° |
| 2026-04-25 10:53 | 19.29136 | 74.11224 | 19305 ft | 360 kts | 300° |
| 2026-04-25 10:53 | 19.30364 | 74.08944 | 18896 ft | 358 kts | 300° |
| 2026-04-25 10:53 | 19.31603 | 74.06641 | 18439 ft | 356 kts | 300° |
| 2026-04-25 10:54 | 19.32811 | 74.04397 | 18059 ft | 353 kts | 300° |
| 2026-04-25 10:54 | 19.33609 | 74.02911 | 17798 ft | 351 kts | 300° |
| 2026-04-25 10:54 | 19.35218 | 73.99918 | 17265 ft | 348 kts | 300° |
| 2026-04-25 10:54 | 19.36416 | 73.97688 | 16862 ft | 346 kts | 300° |
| 2026-04-25 10:55 | 19.37594 | 73.95494 | 16464 ft | 344 kts | 300° |
| 2026-04-25 10:55 | 19.38785 | 73.93277 | 16061 ft | 341 kts | 300° |
| 2026-04-25 10:55 | 19.39935 | 73.91136 | 15865 ft | 330 kts | 300° |
| 2026-04-25 10:55 | 19.40993 | 73.89026 | 15848 ft | 325 kts | 290° |
| 2026-04-25 10:56 | 19.41362 | 73.86662 | 15864 ft | 328 kts | 265° |
| 2026-04-25 10:56 | 19.40740 | 73.84310 | 15886 ft | 329 kts | 243° |
| 2026-04-25 10:56 | 19.39666 | 73.82192 | 15881 ft | 329 kts | 240° |
| 2026-04-25 10:56 | 19.38536 | 73.80080 | 15613 ft | 331 kts | 240° |
| 2026-04-25 10:57 | 19.37411 | 73.77969 | 15214 ft | 329 kts | 240° |
| 2026-04-25 10:57 | 19.36317 | 73.75889 | 14928 ft | 323 kts | 240° |
| 2026-04-25 10:57 | 19.35236 | 73.73817 | 14899 ft | 323 kts | 241° |
| 2026-04-25 10:57 | 19.34150 | 73.71723 | 14893 ft | 324 kts | 240° |
| 2026-04-25 10:58 | 19.33048 | 73.69642 | 14888 ft | 324 kts | 240° |
| 2026-04-25 10:58 | 19.31940 | 73.67580 | 14884 ft | 324 kts | 240° |
| 2026-04-25 10:58 | 19.30817 | 73.65492 | 14878 ft | 323 kts | 240° |
| 2026-04-25 10:58 | 19.29706 | 73.63430 | 14869 ft | 323 kts | 240° |
| 2026-04-25 10:59 | 19.28601 | 73.61381 | 14860 ft | 323 kts | 240° |
| 2026-04-25 10:59 | 19.27489 | 73.59315 | 14849 ft | 322 kts | 240° |
| 2026-04-25 10:59 | 19.26455 | 73.57209 | 14839 ft | 322 kts | 244° |
| 2026-04-25 10:59 | 19.25497 | 73.55059 | 14829 ft | 322 kts | 245° |
| 2026-04-25 11:00 | 19.24563 | 73.52917 | 14795 ft | 319 kts | 245° |
| 2026-04-25 11:00 | 19.23638 | 73.50792 | 14485 ft | 316 kts | 245° |
| 2026-04-25 11:00 | 19.22734 | 73.48714 | 14295 ft | 306 kts | 245° |
| 2026-04-25 11:00 | 19.21860 | 73.46707 | 14115 ft | 297 kts | 245° |
| 2026-04-25 11:01 | 19.21009 | 73.44752 | 13845 ft | 292 kts | 245° |
| 2026-04-25 11:01 | 19.20160 | 73.42803 | 13481 ft | 290 kts | 245° |
| 2026-04-25 11:01 | 19.19321 | 73.40881 | 13114 ft | 288 kts | 245° |
| 2026-04-25 11:01 | 19.18483 | 73.38960 | 12751 ft | 287 kts | 245° |
| 2026-04-25 11:02 | 19.17648 | 73.37051 | 12389 ft | 285 kts | 245° |
| 2026-04-25 11:02 | 19.16820 | 73.35159 | 12030 ft | 284 kts | 245° |
| 2026-04-25 11:02 | 19.16000 | 73.33279 | 11670 ft | 282 kts | 245° |
| 2026-04-25 11:02 | 19.15194 | 73.31398 | 11303 ft | 281 kts | 249° |
| 2026-04-25 11:03 | 19.14615 | 73.29430 | 10929 ft | 280 kts | 256° |
| 2026-04-25 11:03 | 19.14172 | 73.27447 | 10571 ft | 278 kts | 257° |
| 2026-04-25 11:03 | 19.13731 | 73.25447 | 10205 ft | 277 kts | 256° |
| 2026-04-25 11:03 | 19.13271 | 73.23447 | 9805 ft | 277 kts | 256° |
| 2026-04-25 11:04 | 19.12804 | 73.21497 | 9437 ft | 276 kts | 255° |
| 2026-04-25 11:04 | 19.12322 | 73.19527 | 9011 ft | 271 kts | 255° |
| 2026-04-25 11:04 | 19.11856 | 73.17638 | 8335 ft | 271 kts | 255° |
| 2026-04-25 11:04 | 19.11503 | 73.16348 | 7857 ft | 271 kts | 248° |
| 2026-04-25 11:05 | 19.09994 | 73.14314 | 6915 ft | 269 kts | 211° |
| 2026-04-25 11:05 | 19.08280 | 73.13655 | 6217 ft | 267 kts | 184° |
| 2026-04-25 11:05 | 19.06492 | 73.13912 | 5518 ft | 264 kts | 156° |
| 2026-04-25 11:05 | 19.05029 | 73.15043 | 4805 ft | 262 kts | 127° |
| 2026-04-25 11:06 | 19.04281 | 73.16754 | 4095 ft | 260 kts | 98° |
| 2026-04-25 11:06 | 19.04424 | 73.18640 | 3440 ft | 268 kts | 69° |
| 2026-04-25 11:06 | 19.05459 | 73.20249 | 3074 ft | 264 kts | 39° |
| 2026-04-25 11:06 | 19.07063 | 73.21069 | 3010 ft | 251 kts | 9° |
| 2026-04-25 11:07 | 19.08766 | 73.20931 | 3016 ft | 252 kts | 339° |
| 2026-04-25 11:07 | 19.10208 | 73.19888 | 3151 ft | 253 kts | 310° |
| 2026-04-25 11:07 | 19.10978 | 73.18232 | 3380 ft | 255 kts | 281° |
| 2026-04-25 11:07 | 19.11162 | 73.16376 | 3641 ft | 256 kts | 272° |
| 2026-04-25 11:08 | 19.11200 | 73.14482 | 3625 ft | 257 kts | 270° |
| 2026-04-25 11:08 | 19.11207 | 73.12611 | 3447 ft | 255 kts | 269° |
| 2026-04-25 11:08 | 19.10998 | 73.10748 | 3269 ft | 253 kts | 257° |
| 2026-04-25 11:08 | 19.10566 | 73.08965 | 3091 ft | 245 kts | 255° |
| 2026-04-25 11:09 | 19.10125 | 73.07262 | 3018 ft | 233 kts | 255° |
| 2026-04-25 11:09 | 19.09723 | 73.05674 | 2999 ft | 218 kts | 253° |
| 2026-04-25 11:09 | 19.09345 | 73.04172 | 2979 ft | 207 kts | 259° |
| 2026-04-25 11:09 | 19.09139 | 73.02644 | 2793 ft | 207 kts | 266° |
| 2026-04-25 11:10 | 19.09072 | 73.01141 | 2527 ft | 207 kts | 269° |
| 2026-04-25 11:10 | 19.09059 | 73.00114 | 2342 ft | 206 kts | 270° |
| 2026-04-25 11:10 | 19.09043 | 72.98157 | 2070 ft | 197 kts | 269° |
| 2026-04-25 11:10 | 19.09023 | 72.96719 | 1772 ft | 193 kts | 269° |
| 2026-04-25 11:11 | 19.09000 | 72.95353 | 1516 ft | 180 kts | 269° |
| 2026-04-25 11:11 | 19.08980 | 72.94071 | 1266 ft | 165 kts | 269° |
| 2026-04-25 11:11 | 19.08962 | 72.92917 | 1027 ft | 151 kts | 269° |
| 2026-04-25 11:11 | 19.08946 | 72.91849 | 821 ft | 141 kts | 269° |
| 2026-04-25 11:12 | 19.08930 | 72.90815 | 660 ft | 141 kts | 269° |
| 2026-04-25 11:12 | 19.08915 | 72.89774 | 479 ft | 140 kts | 269° |
| 2026-04-25 11:12 | 19.08900 | 72.88738 | 293 ft | 140 kts | 269° |
| 2026-04-25 11:12 | 19.08884 | 72.87713 | 104 ft | 139 kts | 269° |
| 2026-04-25 11:13 | 19.08873 | 72.86742 | 48 ft | 117 kts | 270° |
| 2026-04-25 11:13 | 19.08864 | 72.86068 | 48 ft | 67 kts | 269° |
| 2026-04-25 11:13 | 19.08868 | 72.85723 | 48 ft | 34 kts | 277° |
| 2026-04-25 11:13 | 19.08923 | 72.85555 | 48 ft | 16 kts | 294° |
| 2026-04-25 11:14 | 19.08973 | 72.85445 | 48 ft | 16 kts | 300° |
| 2026-04-25 11:14 | 19.09002 | 72.85402 | 48 ft | 1 kts | 341° |
| 2026-04-25 11:14 | 19.09017 | 72.85401 | 48 ft | 2 kts | 1° |
| 2026-04-25 11:14 | 19.09040 | 72.85402 | 48 ft | 3 kts | 1° |
| 2026-04-25 11:15 | 19.09070 | 72.85402 | 48 ft | 4 kts | 1° |
| 2026-04-25 11:15 | 19.09091 | 72.85405 | 48 ft | 0 kts | 26° |
| 2026-04-25 11:15 | 19.09092 | 72.85409 | 48 ft | 1 kts | 77° |
| 2026-04-25 11:15 | 19.09093 | 72.85419 | 48 ft | 1 kts | 83° |
| 2026-04-25 11:16 | 19.09096 | 72.85445 | 48 ft | 2 kts | 63° |
| 2026-04-25 11:16 | 19.09106 | 72.85451 | 48 ft | 1 kts | 5° |
| 2026-04-25 11:16 | 19.09115 | 72.85449 | 48 ft | 1 kts | 353° |
| 2026-04-25 11:17 | 19.09123 | 72.85448 | 48 ft | 1 kts | 354° |
| 2026-04-25 11:17 | 19.09130 | 72.85448 | 48 ft | 1 kts | 359° |
| 2026-04-25 11:17 | 19.09139 | 72.85448 | 48 ft | 1 kts | 359° |
| 2026-04-25 11:17 | 19.09150 | 72.85448 | 48 ft | 0 kts | 1° |
| 2026-04-25 11:18 | 19.09154 | 72.85448 | 48 ft | 1 kts | 357° |
| 2026-04-25 11:18 | 19.09155 | 72.85448 | 48 ft | 0 kts | 357° |